sensor_id;sensor_type;location;lat;lon;timestamp;pressure;altitude;pressure_sealevel;temperature;humidity
20350;BME280;10332;50.208;18.988;2023-04-24T00:02:13;97149.66;;;16.32;46.27
20350;BME280;10332;50.208;18.988;2023-04-24T00:04:41;97132.72;;;16.27;46.47
20350;BME280;10332;50.208;18.988;2023-04-24T00:07:12;97135.66;;;16.24;46.48
20350;BME280;10332;50.208;18.988;2023-04-24T00:09:40;97141.94;;;16.23;46.35
20350;BME280;10332;50.208;18.988;2023-04-24T00:12:09;97137.16;;;16.18;46.31
20350;BME280;10332;50.208;18.988;2023-04-24T00:14:36;97135.34;;;16.18;46.35
20350;BME280;10332;50.208;18.988;2023-04-24T00:17:04;97136.34;;;16.17;46.56
20350;BME280;10332;50.208;18.988;2023-04-24T00:19:32;97134.66;;;16.16;46.23
20350;BME280;10332;50.208;18.988;2023-04-24T00:22:05;97127.44;;;16.10;46.62
20350;BME280;10332;50.208;18.988;2023-04-24T00:24:33;97123.16;;;16.09;46.04
20350;BME280;10332;50.208;18.988;2023-04-24T00:27:00;97120.84;;;16.06;46.13
20350;BME280;10332;50.208;18.988;2023-04-24T00:29:29;97114.09;;;16.12;45.82
20350;BME280;10332;50.208;18.988;2023-04-24T00:31:57;97116.91;;;16.10;45.80
20350;BME280;10332;50.208;18.988;2023-04-24T00:34:24;97106.19;;;16.04;46.22
20350;BME280;10332;50.208;18.988;2023-04-24T00:36:52;97115.09;;;16.03;45.81
20350;BME280;10332;50.208;18.988;2023-04-24T00:39:20;97106.19;;;15.96;46.30
20350;BME280;10332;50.208;18.988;2023-04-24T00:41:48;97099.59;;;15.92;46.13
20350;BME280;10332;50.208;18.988;2023-04-24T00:44:15;97086.94;;;15.95;46.10
20350;BME280;10332;50.208;18.988;2023-04-24T00:46:43;97096.28;;;15.89;46.12
20350;BME280;10332;50.208;18.988;2023-04-24T00:49:11;97097.13;;;15.90;45.88
20350;BME280;10332;50.208;18.988;2023-04-24T00:51:39;97094.97;;;15.85;46.16
20350;BME280;10332;50.208;18.988;2023-04-24T00:54:07;97091.88;;;15.82;46.27
20350;BME280;10332;50.208;18.988;2023-04-24T00:56:35;97092.53;;;15.84;46.00
20350;BME280;10332;50.208;18.988;2023-04-24T00:59:03;97090.34;;;15.71;46.25
20350;BME280;10332;50.208;18.988;2023-04-24T01:01:31;97090.53;;;15.78;46.14
20350;BME280;10332;50.208;18.988;2023-04-24T01:03:59;97090.03;;;15.74;46.19
20350;BME280;10332;50.208;18.988;2023-04-24T01:06:29;97087.69;;;15.63;46.38
20350;BME280;10332;50.208;18.988;2023-04-24T01:08:59;97078.34;;;15.69;45.85
20350;BME280;10332;50.208;18.988;2023-04-24T01:11:28;97091.81;;;15.66;45.98
20350;BME280;10332;50.208;18.988;2023-04-24T01:13:57;97086.56;;;15.66;45.88
20350;BME280;10332;50.208;18.988;2023-04-24T01:16:24;97081.97;;;15.68;45.89
20350;BME280;10332;50.208;18.988;2023-04-24T01:18:52;97078.00;;;15.64;45.83
20350;BME280;10332;50.208;18.988;2023-04-24T01:21:21;97070.78;;;15.74;44.72
20350;BME280;10332;50.208;18.988;2023-04-24T01:23:48;97070.13;;;15.64;45.39
20350;BME280;10332;50.208;18.988;2023-04-24T01:26:17;97078.00;;;15.64;44.96
20350;BME280;10332;50.208;18.988;2023-04-24T01:28:48;97070.78;;;15.66;44.80
20350;BME280;10332;50.208;18.988;2023-04-24T01:31:16;97066.50;;;15.65;45.21
20350;BME280;10332;50.208;18.988;2023-04-24T01:33:43;97070.78;;;15.66;44.92
20350;BME280;10332;50.208;18.988;2023-04-24T01:36:11;97068.91;;;15.58;45.00
20350;BME280;10332;50.208;18.988;2023-04-24T01:38:39;97064.28;;;15.52;45.09
20350;BME280;10332;50.208;18.988;2023-04-24T01:41:06;97059.69;;;15.54;44.73
20350;BME280;10332;50.208;18.988;2023-04-24T01:43:34;97059.84;;;15.52;44.60
20350;BME280;10332;50.208;18.988;2023-04-24T01:46:01;97055.75;;;15.50;44.62
20350;BME280;10332;50.208;18.988;2023-04-24T01:48:29;97059.84;;;15.52;44.47
20350;BME280;10332;50.208;18.988;2023-04-24T01:50:57;97050.00;;;15.46;44.23
20350;BME280;10332;50.208;18.988;2023-04-24T01:53:25;97049.50;;;15.51;44.26
20350;BME280;10332;50.208;18.988;2023-04-24T01:55:52;97048.66;;;15.42;43.98
20350;BME280;10332;50.208;18.988;2023-04-24T01:58:20;97050.63;;;15.40;44.28
20350;BME280;10332;50.208;18.988;2023-04-24T02:00:48;97050.28;;;15.43;44.33
20350;BME280;10332;50.208;18.988;2023-04-24T02:03:15;97045.34;;;15.40;44.60
20350;BME280;10332;50.208;18.988;2023-04-24T02:05:46;97050.09;;;15.37;44.34
20350;BME280;10332;50.208;18.988;2023-04-24T02:08:13;97051.25;;;15.34;44.34
20350;BME280;10332;50.208;18.988;2023-04-24T02:10:41;97037.78;;;15.29;44.68
20350;BME280;10332;50.208;18.988;2023-04-24T02:13:08;97039.41;;;15.30;44.36
20350;BME280;10332;50.208;18.988;2023-04-24T02:15:36;97044.97;;;15.27;44.58
20350;BME280;10332;50.208;18.988;2023-04-24T02:18:03;97034.00;;;15.31;44.17
20350;BME280;10332;50.208;18.988;2023-04-24T02:20:31;97037.09;;;15.27;44.59
20350;BME280;10332;50.208;18.988;2023-04-24T02:23:01;97026.06;;;15.23;44.27
20350;BME280;10332;50.208;18.988;2023-04-24T02:25:29;97022.13;;;15.19;44.37
20350;BME280;10332;50.208;18.988;2023-04-24T02:27:56;97023.78;;;15.20;44.11
20350;BME280;10332;50.208;18.988;2023-04-24T02:30:24;97028.50;;;15.17;44.41
20350;BME280;10332;50.208;18.988;2023-04-24T02:32:51;97018.78;;;15.09;44.48
20350;BME280;10332;50.208;18.988;2023-04-24T02:35:19;97021.41;;;15.09;44.29
20350;BME280;10332;50.208;18.988;2023-04-24T02:37:47;97022.56;;;15.07;44.56
20350;BME280;10332;50.208;18.988;2023-04-24T02:40:14;97017.94;;;15.00;44.51
20350;BME280;10332;50.208;18.988;2023-04-24T02:42:42;97028.44;;;15.00;44.64
20350;BME280;10332;50.208;18.988;2023-04-24T02:45:10;97024.03;;;15.01;44.62
20350;BME280;10332;50.208;18.988;2023-04-24T02:47:37;97019.28;;;15.04;44.33
20350;BME280;10332;50.208;18.988;2023-04-24T02:50:06;97018.78;;;15.09;44.06
20350;BME280;10332;50.208;18.988;2023-04-24T02:52:34;97018.97;;;15.08;44.33
20350;BME280;10332;50.208;18.988;2023-04-24T02:55:02;97024.03;;;15.01;44.36
20350;BME280;10332;50.208;18.988;2023-04-24T02:57:29;97024.22;;;15.08;43.71
20350;BME280;10332;50.208;18.988;2023-04-24T02:59:57;97019.47;;;15.11;44.05
20350;BME280;10332;50.208;18.988;2023-04-24T03:02:24;97021.25;;;15.02;44.21
20350;BME280;10332;50.208;18.988;2023-04-24T03:04:52;97019.28;;;15.04;44.07
20350;BME280;10332;50.208;18.988;2023-04-24T03:07:19;97004.53;;;15.12;44.15
20350;BME280;10332;50.208;18.988;2023-04-24T03:09:48;97010.81;;;15.19;43.48
20350;BME280;10332;50.208;18.988;2023-04-24T03:12:16;97017.50;;;15.13;43.91
20350;BME280;10332;50.208;18.988;2023-04-24T03:14:49;97017.00;;;15.18;43.27
20350;BME280;10332;50.208;18.988;2023-04-24T03:17:18;97013.56;;;15.17;43.57
20350;BME280;10332;50.208;18.988;2023-04-24T03:19:46;97012.44;;;15.20;43.45
20350;BME280;10332;50.208;18.988;2023-04-24T03:22:13;97007.19;;;15.20;43.52
20350;BME280;10332;50.208;18.988;2023-04-24T03:24:41;97014.41;;;15.26;43.34
20350;BME280;10332;50.208;18.988;2023-04-24T03:27:08;97013.41;;;15.27;43.28
20350;BME280;10332;50.208;18.988;2023-04-24T03:29:35;97015.59;;;15.31;43.05
20350;BME280;10332;50.208;18.988;2023-04-24T03:32:03;97009.84;;;15.28;43.36
20350;BME280;10332;50.208;18.988;2023-04-24T03:34:30;97012.78;;;15.33;42.99
20350;BME280;10332;50.208;18.988;2023-04-24T03:36:58;97013.59;;;15.33;43.24
20350;BME280;10332;50.208;18.988;2023-04-24T03:39:25;97015.91;;;15.37;43.05
20350;BME280;10332;50.208;18.988;2023-04-24T03:41:52;97014.63;;;15.41;42.88
20350;BME280;10332;50.208;18.988;2023-04-24T03:44:20;97017.91;;;15.43;42.50
20350;BME280;10332;50.208;18.988;2023-04-24T03:46:47;97015.28;;;15.51;42.67
20350;BME280;10332;50.208;18.988;2023-04-24T03:49:15;97018.75;;;15.59;42.56
20350;BME280;10332;50.208;18.988;2023-04-24T03:51:42;97013.31;;;15.53;42.74
20350;BME280;10332;50.208;18.988;2023-04-24T03:54:09;97014.00;;;15.55;42.82
20350;BME280;10332;50.208;18.988;2023-04-24T03:56:37;97008.91;;;15.61;42.40
20350;BME280;10332;50.208;18.988;2023-04-24T03:59:05;97005.16;;;15.64;42.27
20350;BME280;10332;50.208;18.988;2023-04-24T04:01:32;97011.72;;;15.68;42.16
20350;BME280;10332;50.208;18.988;2023-04-24T04:04:04;97009.94;;;15.77;41.99
20350;BME280;10332;50.208;18.988;2023-04-24T04:06:32;97009.09;;;15.76;42.13
20350;BME280;10332;50.208;18.988;2023-04-24T04:08:59;97010.94;;;15.84;42.12
20350;BME280;10332;50.208;18.988;2023-04-24T04:11:27;97014.88;;;15.88;42.25
20350;BME280;10332;50.208;18.988;2023-04-24T04:13:55;97009.59;;;15.96;41.40
20350;BME280;10332;50.208;18.988;2023-04-24T04:16:23;97012.06;;;15.98;41.42
20350;BME280;10332;50.208;18.988;2023-04-24T04:18:51;97015.22;;;16.09;41.30
20350;BME280;10332;50.208;18.988;2023-04-24T04:21:19;97008.94;;;16.10;41.16
20350;BME280;10332;50.208;18.988;2023-04-24T04:23:46;97003.00;;;16.16;40.92
20350;BME280;10332;50.208;18.988;2023-04-24T04:26:14;97004.81;;;16.16;41.17
20350;BME280;10332;50.208;18.988;2023-04-24T04:28:41;97008.94;;;16.27;40.66
20350;BME280;10332;50.208;18.988;2023-04-24T04:31:09;97014.50;;;16.32;40.66
20350;BME280;10332;50.208;18.988;2023-04-24T04:33:36;97014.50;;;16.40;40.88
20350;BME280;10332;50.208;18.988;2023-04-24T04:36:05;97009.53;;;16.53;40.80
20350;BME280;10332;50.208;18.988;2023-04-24T04:38:33;97017.09;;;16.64;40.44
20350;BME280;10332;50.208;18.988;2023-04-24T04:41:00;97010.66;;;16.75;40.45
20350;BME280;10332;50.208;18.988;2023-04-24T04:43:28;97004.81;;;16.88;39.76
20350;BME280;10332;50.208;18.988;2023-04-24T04:45:55;97009.75;;;16.99;39.57
20350;BME280;10332;50.208;18.988;2023-04-24T04:48:23;97001.63;;;17.09;39.58
20350;BME280;10332;50.208;18.988;2023-04-24T04:50:50;97009.84;;;17.14;39.58
20350;BME280;10332;50.208;18.988;2023-04-24T04:53:18;97007.34;;;17.20;39.12
20350;BME280;10332;50.208;18.988;2023-04-24T04:55:45;97009.63;;;17.23;38.95
20350;BME280;10332;50.208;18.988;2023-04-24T04:58:14;97008.94;;;17.29;38.99
20350;BME280;10332;50.208;18.988;2023-04-24T05:00:41;97016.97;;;17.36;38.88
20350;BME280;10332;50.208;18.988;2023-04-24T05:03:09;97015.44;;;17.42;38.97
20350;BME280;10332;50.208;18.988;2023-04-24T05:05:47;97012.13;;;17.48;38.60
20350;BME280;10332;50.208;18.988;2023-04-24T05:08:15;97006.47;;;17.51;38.95
20350;BME280;10332;50.208;18.988;2023-04-24T05:10:54;97013.34;;;17.60;38.60
20350;BME280;10332;50.208;18.988;2023-04-24T05:13:22;97008.03;;;17.68;37.91
20350;BME280;10332;50.208;18.988;2023-04-24T05:16:05;97018.28;;;17.71;38.42
20350;BME280;10332;50.208;18.988;2023-04-24T05:18:33;97017.91;;;17.74;38.69
20350;BME280;10332;50.208;18.988;2023-04-24T05:21:01;97018.91;;;17.73;38.73
20350;BME280;10332;50.208;18.988;2023-04-24T05:23:28;97018.34;;;17.55;38.05
20350;BME280;10332;50.208;18.988;2023-04-24T05:25:56;97012.19;;;17.63;38.15
20350;BME280;10332;50.208;18.988;2023-04-24T05:28:23;97007.78;;;17.55;38.40
20350;BME280;10332;50.208;18.988;2023-04-24T05:30:55;97008.34;;;17.42;38.93
20350;BME280;10332;50.208;18.988;2023-04-24T05:33:23;97018.09;;;17.42;38.99
20350;BME280;10332;50.208;18.988;2023-04-24T05:35:50;97014.81;;;17.40;39.27
20350;BME280;10332;50.208;18.988;2023-04-24T05:38:18;97019.84;;;17.26;38.60
20350;BME280;10332;50.208;18.988;2023-04-24T05:40:46;97017.84;;;17.28;39.45
20350;BME280;10332;50.208;18.988;2023-04-24T05:43:14;97016.66;;;17.31;39.32
20350;BME280;10332;50.208;18.988;2023-04-24T05:45:41;97018.09;;;17.42;39.30
20350;BME280;10332;50.208;18.988;2023-04-24T05:48:09;97014.75;;;17.48;39.25
20350;BME280;10332;50.208;18.988;2023-04-24T05:50:36;97008.13;;;17.52;39.37
20350;BME280;10332;50.208;18.988;2023-04-24T05:53:04;97007.78;;;17.55;39.17
20350;BME280;10332;50.208;18.988;2023-04-24T05:55:34;97013.34;;;17.60;39.14
20350;BME280;10332;50.208;18.988;2023-04-24T05:58:01;97006.38;;;17.67;39.33
20350;BME280;10332;50.208;18.988;2023-04-24T06:00:29;97011.63;;;17.75;39.22
20350;BME280;10332;50.208;18.988;2023-04-24T06:02:56;97009.34;;;17.72;39.38
20350;BME280;10332;50.208;18.988;2023-04-24T06:05:24;97010.84;;;17.67;39.46
20350;BME280;10332;50.208;18.988;2023-04-24T06:07:52;97009.53;;;17.71;39.11
20350;BME280;10332;50.208;18.988;2023-04-24T06:10:19;97000.06;;;17.76;39.25
20350;BME280;10332;50.208;18.988;2023-04-24T06:12:47;97006.94;;;17.85;39.06
20350;BME280;10332;50.208;18.988;2023-04-24T06:15:14;96996.69;;;17.91;39.18
20350;BME280;10332;50.208;18.988;2023-04-24T06:17:42;97001.59;;;17.94;39.38
20350;BME280;10332;50.208;18.988;2023-04-24T06:20:09;96999.31;;;17.91;38.68
20350;BME280;10332;50.208;18.988;2023-04-24T06:22:38;96994.13;;;17.97;38.69
20350;BME280;10332;50.208;18.988;2023-04-24T06:25:07;96988.88;;;18.12;38.93
20350;BME280;10332;50.208;18.988;2023-04-24T06:27:35;96997.56;;;18.21;38.72
20350;BME280;10332;50.208;18.988;2023-04-24T06:30:02;96989.94;;;18.26;38.90
20350;BME280;10332;50.208;18.988;2023-04-24T06:32:30;96988.22;;;18.48;38.47
20350;BME280;10332;50.208;18.988;2023-04-24T06:34:58;96992.91;;;18.75;38.37
20350;BME280;10332;50.208;18.988;2023-04-24T06:37:26;96987.41;;;19.42;36.76
20350;BME280;10332;50.208;18.988;2023-04-24T06:39:53;96980.66;;;20.04;35.90
20350;BME280;10332;50.208;18.988;2023-04-24T06:42:20;96984.75;;;20.28;35.13
20350;BME280;10332;50.208;18.988;2023-04-24T06:44:48;96981.28;;;20.90;34.04
20350;BME280;10332;50.208;18.988;2023-04-24T06:47:16;96983.94;;;21.38;33.40
20350;BME280;10332;50.208;18.988;2023-04-24T06:49:43;96982.16;;;21.71;32.32
20350;BME280;10332;50.208;18.988;2023-04-24T06:52:12;96981.81;;;22.14;31.71
20350;BME280;10332;50.208;18.988;2023-04-24T06:54:41;96983.66;;;21.94;31.21
20350;BME280;10332;50.208;18.988;2023-04-24T06:57:09;96982.03;;;22.13;31.54
20350;BME280;10332;50.208;18.988;2023-04-24T06:59:38;96987.75;;;22.16;31.44
20350;BME280;10332;50.208;18.988;2023-04-24T07:02:05;96986.88;;;21.69;31.51
20350;BME280;10332;50.208;18.988;2023-04-24T07:04:33;96980.91;;;21.54;31.68
20350;BME280;10332;50.208;18.988;2023-04-24T07:07:02;96986.91;;;21.76;31.62
20350;BME280;10332;50.208;18.988;2023-04-24T07:09:29;96987.31;;;21.18;31.57
20350;BME280;10332;50.208;18.988;2023-04-24T07:11:57;96984.66;;;21.18;31.55
20350;BME280;10332;50.208;18.988;2023-04-24T07:14:24;96981.91;;;21.40;31.20
20350;BME280;10332;50.208;18.988;2023-04-24T07:16:52;96979.31;;;21.73;31.68
20350;BME280;10332;50.208;18.988;2023-04-24T07:19:20;96976.81;;;20.97;31.38
20350;BME280;10332;50.208;18.988;2023-04-24T07:21:47;96975.91;;;21.24;32.23
20350;BME280;10332;50.208;18.988;2023-04-24T07:24:14;96985.19;;;21.55;32.24
20350;BME280;10332;50.208;18.988;2023-04-24T07:26:43;96970.94;;;21.82;31.06
20350;BME280;10332;50.208;18.988;2023-04-24T07:29:10;96971.16;;;21.94;31.45
20350;BME280;10332;50.208;18.988;2023-04-24T07:31:37;96974.13;;;21.32;32.04
20350;BME280;10332;50.208;18.988;2023-04-24T07:34:05;96967.88;;;21.99;30.66
20350;BME280;10332;50.208;18.988;2023-04-24T07:36:33;96968.13;;;22.30;30.88
20350;BME280;10332;50.208;18.988;2023-04-24T07:39:00;96964.59;;;21.83;30.97
20350;BME280;10332;50.208;18.988;2023-04-24T07:41:28;96970.34;;;22.27;29.90
20350;BME280;10332;50.208;18.988;2023-04-24T07:43:55;96964.22;;;22.33;29.70
20350;BME280;10332;50.208;18.988;2023-04-24T07:46:23;96958.47;;;22.49;29.67
20350;BME280;10332;50.208;18.988;2023-04-24T07:48:50;96960.94;;;23.15;29.41
20350;BME280;10332;50.208;18.988;2023-04-24T07:51:35;96961.56;;;23.87;28.76
20350;BME280;10332;50.208;18.988;2023-04-24T07:54:05;96962.19;;;24.39;28.88
20350;BME280;10332;50.208;18.988;2023-04-24T07:56:33;96954.41;;;24.13;27.87
20350;BME280;10332;50.208;18.988;2023-04-24T07:59:01;96964.81;;;25.37;27.83
20350;BME280;10332;50.208;18.988;2023-04-24T08:01:29;96955.63;;;25.15;26.39
20350;BME280;10332;50.208;18.988;2023-04-24T08:03:56;96957.28;;;25.46;26.04
20350;BME280;10332;50.208;18.988;2023-04-24T08:06:24;96950.19;;;25.52;25.78
20350;BME280;10332;50.208;18.988;2023-04-24T08:08:54;96951.13;;;25.75;26.37
20350;BME280;10332;50.208;18.988;2023-04-24T08:11:22;96943.84;;;25.64;26.22
20350;BME280;10332;50.208;18.988;2023-04-24T08:13:50;96950.06;;;25.16;26.52
20350;BME280;10332;50.208;18.988;2023-04-24T08:16:18;96947.97;;;25.79;26.82
20350;BME280;10332;50.208;18.988;2023-04-24T08:18:45;96955.31;;;25.71;25.80
20350;BME280;10332;50.208;18.988;2023-04-24T08:21:13;96951.41;;;25.26;26.10
20350;BME280;10332;50.208;18.988;2023-04-24T08:23:45;96949.63;;;25.80;25.68
20350;BME280;10332;50.208;18.988;2023-04-24T08:26:13;96945.94;;;26.04;25.85
20350;BME280;10332;50.208;18.988;2023-04-24T08:28:41;96940.97;;;26.54;25.86
20350;BME280;10332;50.208;18.988;2023-04-24T08:31:09;96942.72;;;26.49;25.01
20350;BME280;10332;50.208;18.988;2023-04-24T08:33:37;96941.06;;;26.71;25.27
20350;BME280;10332;50.208;18.988;2023-04-24T08:36:06;96952.63;;;26.60;24.70
20350;BME280;10332;50.208;18.988;2023-04-24T08:38:33;96937.19;;;26.91;23.89
20350;BME280;10332;50.208;18.988;2023-04-24T08:41:01;96939.13;;;26.95;23.97
20350;BME280;10332;50.208;18.988;2023-04-24T08:43:29;96931.63;;;27.21;23.84
20350;BME280;10332;50.208;18.988;2023-04-24T08:45:58;96936.44;;;27.92;23.80
20350;BME280;10332;50.208;18.988;2023-04-24T08:48:27;96936.84;;;28.51;23.76
20350;BME280;10332;50.208;18.988;2023-04-24T08:50:59;96931.69;;;28.67;22.77
20350;BME280;10332;50.208;18.988;2023-04-24T08:53:27;96929.00;;;29.10;23.18
20350;BME280;10332;50.208;18.988;2023-04-24T08:55:55;96923.97;;;29.14;22.84
20350;BME280;10332;50.208;18.988;2023-04-24T08:58:28;96939.72;;;29.54;22.68
20350;BME280;10332;50.208;18.988;2023-04-24T09:00:56;96928.94;;;30.08;22.19
20350;BME280;10332;50.208;18.988;2023-04-24T09:03:27;96931.16;;;30.59;22.30
20350;BME280;10332;50.208;18.988;2023-04-24T09:05:57;96930.34;;;30.58;22.29
20350;BME280;10332;50.208;18.988;2023-04-24T09:08:25;96941.63;;;29.32;22.02
20350;BME280;10332;50.208;18.988;2023-04-24T09:10:53;96933.19;;;28.41;23.24
20350;BME280;10332;50.208;18.988;2023-04-24T09:13:21;96944.91;;;28.18;23.59
20350;BME280;10332;50.208;18.988;2023-04-24T09:15:49;96940.84;;;29.85;21.63
20350;BME280;10332;50.208;18.988;2023-04-24T09:18:17;96932.41;;;31.66;21.29
20350;BME280;10332;50.208;18.988;2023-04-24T09:23:31;96938.78;;;33.08;20.22
20350;BME280;10332;50.208;18.988;2023-04-24T09:26:01;96937.91;;;34.69;19.09
20350;BME280;10332;50.208;18.988;2023-04-24T09:28:40;96929.50;;;36.59;17.80
20350;BME280;10332;50.208;18.988;2023-04-24T09:31:18;96932.16;;;38.14;16.50
20350;BME280;10332;50.208;18.988;2023-04-24T09:36:55;96941.28;;;39.02;15.56
20350;BME280;10332;50.208;18.988;2023-04-24T09:39:31;96933.94;;;38.72;16.14
20350;BME280;10332;50.208;18.988;2023-04-24T09:42:01;96928.28;;;38.37;16.26
20350;BME280;10332;50.208;18.988;2023-04-24T09:44:37;96929.47;;;38.76;16.25
20350;BME280;10332;50.208;18.988;2023-04-24T09:47:09;96931.44;;;38.53;15.80
20350;BME280;10332;50.208;18.988;2023-04-24T09:49:37;96920.72;;;38.96;15.55
20350;BME280;10332;50.208;18.988;2023-04-24T09:52:09;96919.75;;;40.01;15.04
20350;BME280;10332;50.208;18.988;2023-04-24T09:54:39;96921.78;;;39.52;15.49
20350;BME280;10332;50.208;18.988;2023-04-24T09:57:10;96923.88;;;40.24;15.37
20350;BME280;10332;50.208;18.988;2023-04-24T09:59:42;96925.69;;;40.12;14.77
20350;BME280;10332;50.208;18.988;2023-04-24T10:02:20;96921.75;;;38.38;14.97
20350;BME280;10332;50.208;18.988;2023-04-24T10:04:57;96919.94;;;38.65;15.99
20350;BME280;10332;50.208;18.988;2023-04-24T10:07:28;96913.53;;;39.17;15.59
20350;BME280;10332;50.208;18.988;2023-04-24T10:09:55;96911.69;;;38.87;15.89
20350;BME280;10332;50.208;18.988;2023-04-24T10:12:24;96902.06;;;39.64;14.95
20350;BME280;10332;50.208;18.988;2023-04-24T10:14:53;96915.81;;;43.60;13.51
20350;BME280;10332;50.208;18.988;2023-04-24T10:17:21;96906.88;;;40.10;14.44
20350;BME280;10332;50.208;18.988;2023-04-24T10:19:51;96905.13;;;41.50;13.83
20350;BME280;10332;50.208;18.988;2023-04-24T10:22:21;96914.00;;;42.67;13.32
20350;BME280;10332;50.208;18.988;2023-04-24T10:24:50;96904.56;;;39.34;14.26
20350;BME280;10332;50.208;18.988;2023-04-24T10:27:21;96910.84;;;39.43;14.86
20350;BME280;10332;50.208;18.988;2023-04-24T10:29:52;96903.75;;;39.25;14.58
20350;BME280;10332;50.208;18.988;2023-04-24T10:32:20;96899.13;;;33.32;18.93
20350;BME280;10332;50.208;18.988;2023-04-24T10:34:48;96901.31;;;31.33;20.64
20350;BME280;10332;50.208;18.988;2023-04-24T10:37:16;96899.06;;;29.24;22.32
20350;BME280;10332;50.208;18.988;2023-04-24T10:39:48;96905.53;;;28.23;23.70
20350;BME280;10332;50.208;18.988;2023-04-24T10:42:16;96895.56;;;27.00;25.48
20350;BME280;10332;50.208;18.988;2023-04-24T10:44:48;96916.41;;;25.57;26.79
20350;BME280;10332;50.208;18.988;2023-04-24T10:47:17;96898.66;;;25.33;27.40
20350;BME280;10332;50.208;18.988;2023-04-24T10:49:44;96898.00;;;25.49;27.61
20350;BME280;10332;50.208;18.988;2023-04-24T10:52:14;96892.44;;;23.92;29.58
20350;BME280;10332;50.208;18.988;2023-04-24T10:54:45;96896.59;;;23.50;30.32
20350;BME280;10332;50.208;18.988;2023-04-24T10:59:48;96912.09;;;23.66;30.98
20350;BME280;10332;50.208;18.988;2023-04-24T11:02:18;96908.28;;;22.66;32.26
20350;BME280;10332;50.208;18.988;2023-04-24T11:04:45;96900.41;;;22.00;33.62
20350;BME280;10332;50.208;18.988;2023-04-24T11:07:21;96914.53;;;20.93;35.30
20350;BME280;10332;50.208;18.988;2023-04-24T11:10:00;96924.03;;;21.22;34.76
20350;BME280;10332;50.208;18.988;2023-04-24T11:12:28;96918.00;;;21.61;34.79
20350;BME280;10332;50.208;18.988;2023-04-24T11:17:33;96916.91;;;21.29;35.41
20350;BME280;10332;50.208;18.988;2023-04-24T11:20:07;96926.44;;;21.04;35.76
20350;BME280;10332;50.208;18.988;2023-04-24T11:22:53;96925.53;;;20.90;36.44
20350;BME280;10332;50.208;18.988;2023-04-24T11:25:22;96923.25;;;21.28;36.30
20350;BME280;10332;50.208;18.988;2023-04-24T11:27:50;96918.38;;;21.32;35.81
20350;BME280;10332;50.208;18.988;2023-04-24T11:30:31;96924.34;;;20.51;37.57
20350;BME280;10332;50.208;18.988;2023-04-24T11:33:04;96912.00;;;20.72;37.06
20350;BME280;10332;50.208;18.988;2023-04-24T11:35:40;96915.75;;;21.58;36.18
20350;BME280;10332;50.208;18.988;2023-04-24T11:38:08;96918.19;;;21.53;35.82
20350;BME280;10332;50.208;18.988;2023-04-24T11:40:40;96925.75;;;21.82;35.16
20350;BME280;10332;50.208;18.988;2023-04-24T11:43:09;96921.88;;;21.65;35.58
20350;BME280;10332;50.208;18.988;2023-04-24T11:45:38;96911.63;;;21.56;35.37
20350;BME280;10332;50.208;18.988;2023-04-24T11:48:05;96921.25;;;21.50;35.31
20350;BME280;10332;50.208;18.988;2023-04-24T11:50:33;96921.47;;;21.68;35.34
20350;BME280;10332;50.208;18.988;2023-04-24T11:53:01;96918.50;;;21.23;35.89
20350;BME280;10332;50.208;18.988;2023-04-24T11:55:29;96907.78;;;21.51;35.59
20350;BME280;10332;50.208;18.988;2023-04-24T11:57:59;96918.97;;;21.47;35.39
20350;BME280;10332;50.208;18.988;2023-04-24T12:00:30;96915.72;;;21.45;36.14
20350;BME280;10332;50.208;18.988;2023-04-24T12:03:11;96918.81;;;21.48;37.01
20350;BME280;10332;50.208;18.988;2023-04-24T12:05:40;96923.09;;;21.56;37.07
20350;BME280;10332;50.208;18.988;2023-04-24T12:08:08;96911.47;;;20.89;39.14
20350;BME280;10332;50.208;18.988;2023-04-24T12:10:35;96929.50;;;21.07;39.15
20350;BME280;10332;50.208;18.988;2023-04-24T12:13:03;96911.66;;;20.88;39.51
20350;BME280;10332;50.208;18.988;2023-04-24T12:15:31;96928.16;;;20.83;39.70
20350;BME280;10332;50.208;18.988;2023-04-24T12:17:59;96917.66;;;21.03;38.83
20350;BME280;10332;50.208;18.988;2023-04-24T12:20:30;96923.63;;;21.25;37.91
20350;BME280;10332;50.208;18.988;2023-04-24T12:23:00;96918.19;;;21.40;37.87
20350;BME280;10332;50.208;18.988;2023-04-24T12:25:31;96903.25;;;20.78;38.09
20350;BME280;10332;50.208;18.988;2023-04-24T12:30:33;96914.50;;;21.41;37.81
20350;BME280;10332;50.208;18.988;2023-04-24T12:33:02;96915.06;;;20.68;39.25
20350;BME280;10332;50.208;18.988;2023-04-24T12:35:33;96908.81;;;20.13;40.49
20350;BME280;10332;50.208;18.988;2023-04-24T12:38:09;96907.31;;;20.67;40.43
20350;BME280;10332;50.208;18.988;2023-04-24T12:40:37;96916.44;;;21.06;39.75
20350;BME280;10332;50.208;18.988;2023-04-24T12:43:19;96906.41;;;20.94;40.38
20350;BME280;10332;50.208;18.988;2023-04-24T12:45:49;96906.66;;;20.58;42.51
20350;BME280;10332;50.208;18.988;2023-04-24T12:48:17;96905.66;;;20.66;41.38
20350;BME280;10332;50.208;18.988;2023-04-24T12:50:45;96912.97;;;20.29;42.11
20350;BME280;10332;50.208;18.988;2023-04-24T12:53:14;96920.03;;;19.88;43.02
20350;BME280;10332;50.208;18.988;2023-04-24T12:55:44;96925.13;;;19.68;43.25
20350;BME280;10332;50.208;18.988;2023-04-24T12:58:12;96906.66;;;19.74;43.02
20350;BME280;10332;50.208;18.988;2023-04-24T13:00:40;96916.69;;;19.36;43.20
20350;BME280;10332;50.208;18.988;2023-04-24T13:03:10;96901.38;;;19.53;44.09
20350;BME280;10332;50.208;18.988;2023-04-24T13:05:39;96897.56;;;20.11;43.08
20350;BME280;10332;50.208;18.988;2023-04-24T13:08:07;96896.69;;;19.55;44.40
20350;BME280;10332;50.208;18.988;2023-04-24T13:10:35;96891.63;;;19.32;44.92
20350;BME280;10332;50.208;18.988;2023-04-24T13:13:03;96900.19;;;19.34;45.16